Time;durP1;ratioP1;P1;durP2;ratioP2;P2;SDS_P1;SDS_P2;PMS_P1;PMS_P2;Temp;Humidity;BMP_temperature;BMP_pressure;BME280_temperature;BME280_humidity;BME280_pressure;Samples;Min_cycle;Max_cycle;Signal;HPM_P1;HPM_P2
2022/02/02 00:01:43;;;;;;;22.95;3.45;;;6.60;99.90;;;;;;5064681;28;20599;-76
2022/02/02 00:04:13;;;;;;;21.70;3.83;;;6.60;99.90;;;;;;5064147;28;20040;-76
2022/02/02 00:06:44;;;;;;;21.98;4.10;;;6.60;99.90;;;;;;5084548;28;20041;-76
2022/02/02 00:09:14;;;;;;;18.02;3.75;;;6.50;99.90;;;;;;5060678;28;20040;-76
2022/02/02 00:19:38;;;;;;;10.43;2.80;;;6.50;99.90;;;;;;5057957;28;20063;-76
2022/02/02 00:22:17;;;;;;;23.13;4.38;;;6.50;99.90;;;;;;5065374;28;20052;-76
2022/02/02 00:27:13;;;;;;;22.80;4.78;;;6.50;99.90;;;;;;5069884;28;20127;-76
2022/02/02 00:29:44;;;;;;;27.02;4.72;;;6.50;99.90;;;;;;5069220;28;20048;-75
2022/02/02 00:32:19;;;;;;;22.20;4.10;;;6.50;99.90;;;;;;5062622;28;20478;-76
2022/02/02 00:34:45;;;;;;;19.58;4.50;;;6.50;99.90;;;;;;5069490;28;20046;-75
2022/02/02 00:37:11;;;;;;;24.77;4.80;;;6.60;99.90;;;;;;5067407;28;20083;-76
2022/02/02 00:39:37;;;;;;;30.27;4.57;;;6.60;99.90;;;;;;5069304;28;20486;-76
2022/02/02 00:42:03;;;;;;;24.02;4.43;;;6.50;99.90;;;;;;5062292;28;20037;-76
2022/02/02 00:44:29;;;;;;;25.63;4.20;;;6.50;99.90;;;;;;5065997;28;20090;-76
2022/02/02 00:46:56;;;;;;;26.50;5.28;;;6.50;99.90;;;;;;5065230;28;20055;-76
2022/02/02 00:49:22;;;;;;;24.15;5.28;;;6.60;99.90;;;;;;5063700;28;20075;-77
2022/02/02 00:51:49;;;;;;;18.23;2.53;;;6.50;99.90;;;;;;5067104;28;20496;-76
2022/02/02 00:54:23;;;;;;;20.38;3.88;;;6.50;99.90;;;;;;5060268;28;20045;-76
2022/02/02 00:56:50;;;;;;;23.60;3.47;;;6.50;99.90;;;;;;5057997;28;20489;-75
2022/02/02 00:59:16;;;;;;;16.33;3.63;;;6.50;99.90;;;;;;5055875;28;20041;-73
2022/02/02 01:01:42;;;;;;;20.90;3.70;;;6.60;99.90;;;;;;5068925;28;20055;-75
2022/02/02 01:04:08;;;;;;;19.67;3.75;;;6.70;99.90;;;;;;5062872;28;20035;-75
2022/02/02 01:06:38;;;;;;;16.90;2.85;;;6.70;99.90;;;;;;5072940;28;20052;-76
2022/02/02 01:09:15;;;;;;;18.05;3.53;;;6.80;99.90;;;;;;5069156;28;20059;-76
2022/02/02 01:20:16;;;;;;;19.83;4.18;;;7.00;99.90;;;;;;5033569;28;20079;-75
2022/02/02 01:28:11;;;;;;;18.48;3.70;;;6.90;99.90;;;;;;5072143;28;20060;-74
2022/02/02 01:30:37;;;;;;;14.10;2.72;;;7.00;99.90;;;;;;5070446;28;20478;-75
2022/02/02 01:33:03;;;;;;;11.95;2.60;;;7.00;99.90;;;;;;5072548;28;20045;-77
2022/02/02 01:35:29;;;;;;;17.05;3.33;;;6.90;99.90;;;;;;5071963;28;20053;-75
2022/02/02 01:37:56;;;;;;;12.77;3.00;;;6.80;99.90;;;;;;5070737;28;20055;-75
2022/02/02 01:40:45;;;;;;;14.63;2.40;;;6.90;99.90;;;;;;5066904;28;20044;-75
2022/02/02 01:43:25;;;;;;;19.65;3.28;;;6.80;99.90;;;;;;5067390;28;20060;-74
2022/02/02 01:45:55;;;;;;;12.85;2.60;;;6.70;99.90;;;;;;5071901;28;20033;-75
2022/02/02 01:48:46;;;;;;;20.42;3.15;;;6.60;99.90;;;;;;5069142;28;20155;-74
2022/02/02 01:56:16;;;;;;;16.80;2.95;;;6.50;99.90;;;;;;5073427;28;20386;-75
2022/02/02 02:01:14;;;;;;;14.50;2.55;;;6.50;99.90;;;;;;5065677;28;20056;-75
2022/02/02 02:03:40;;;;;;;13.05;2.33;;;6.50;99.90;;;;;;5071457;28;20068;-74
2022/02/02 02:06:06;;;;;;;16.80;2.40;;;6.50;99.90;;;;;;5069402;28;20072;-74
2022/02/02 02:08:35;;;;;;;10.70;2.33;;;6.50;99.90;;;;;;5080061;28;20064;-75
2022/02/02 02:11:02;;;;;;;13.95;2.50;;;6.60;99.90;;;;;;5066961;28;20067;-76
2022/02/02 02:16:20;;;;;;;;;;;6.50;99.90;;;;;;5071593;28;20071;-76
2022/02/02 02:18:45;;;;;;;11.13;2.15;;;6.60;99.90;;;;;;5055800;28;19956;-74
2022/02/02 02:21:14;;;;;;;19.55;3.53;;;6.60;99.90;;;;;;5068950;28;20076;-74
2022/02/02 02:23:41;;;;;;;17.80;3.38;;;6.60;99.90;;;;;;5069790;28;20364;-74
2022/02/02 02:26:08;;;;;;;20.50;3.17;;;6.60;99.90;;;;;;5062183;28;20048;-75
2022/02/02 02:28:47;;;;;;;13.65;2.65;;;6.60;99.90;;;;;;5069272;28;20071;-76
2022/02/02 02:31:27;;;;;;;16.83;2.67;;;6.60;99.90;;;;;;5071544;28;20067;-76
2022/02/02 02:57:52;;;;;;;17.63;3.38;;;6.70;99.90;;;;;;5062176;28;20040;-75
2022/02/02 03:52:39;;;;;;;13.93;3.08;;;6.60;99.90;;;;;;5084459;22;20059;-75
2022/02/02 03:59:43;;;;;;;22.45;4.30;;;6.40;99.90;;;;;;5088791;28;20130;-75
2022/02/02 04:07:49;;;;;;;13.55;2.67;;;6.30;99.90;;;;;;5090286;28;20044;-76
2022/02/02 04:10:16;;;;;;;23.60;4.35;;;6.40;99.90;;;;;;5089687;28;20477;-75
2022/02/02 04:12:53;;;;;;;28.25;4.88;;;6.30;99.90;;;;;;5089779;28;20060;-75
2022/02/02 04:59:09;;;;;;;32.40;4.97;;;6.30;99.90;;;;;;5097227;28;20155;-75
2022/02/02 05:06:51;;;;;;;26.58;4.70;;;6.30;99.90;;;;;;5093068;28;20044;-75
2022/02/02 05:25:52;;;;;;;23.95;3.78;;;6.30;99.90;;;;;;5098394;28;20036;-76
2022/02/02 05:41:11;;;;;;;16.77;3.33;;;6.40;99.90;;;;;;5092915;28;20219;-75
2022/02/02 05:49:58;;;;;;;28.42;4.30;;;6.50;99.90;;;;;;5093090;28;20074;-75
2022/02/02 05:52:22;;;;;;;23.55;5.10;;;6.40;99.90;;;;;;5088874;28;20761;-75
2022/02/02 05:54:47;;;;;;;22.65;4.47;;;6.50;99.90;;;;;;5092728;28;20048;-75
2022/02/02 05:57:14;;;;;;;22.70;5.65;;;6.40;99.90;;;;;;5092915;28;20050;-75
2022/02/02 05:59:42;;;;;;;23.88;4.28;;;6.40;99.90;;;;;;5089102;28;20043;-75
2022/02/02 06:02:11;;;;;;;24.38;4.32;;;6.40;99.90;;;;;;5091942;28;20054;-75
2022/02/02 06:04:46;;;;;;;28.45;4.40;;;6.40;99.90;;;;;;5093553;28;20081;-75
2022/02/02 06:07:15;;;;;;;25.88;5.15;;;6.40;99.90;;;;;;5091288;28;20067;-75
2022/02/02 06:09:46;;;;;;;25.23;4.53;;;6.30;99.90;;;;;;5089667;28;20427;-75
2022/02/02 06:12:16;;;;;;;25.92;4.93;;;6.40;99.90;;;;;;5090722;28;20489;-75
2022/02/02 06:14:44;;;;;;;22.67;4.97;;;6.50;99.90;;;;;;5084368;28;20062;-76
2022/02/02 06:17:10;;;;;;;24.75;4.60;;;6.40;99.90;;;;;;5091258;28;20425;-75
2022/02/02 06:19:36;;;;;;;26.10;4.00;;;6.40;99.90;;;;;;5091798;28;20043;-76
2022/02/02 06:22:15;;;;;;;20.17;4.05;;;6.40;99.90;;;;;;5091884;28;20032;-75
2022/02/02 06:25:08;;;;;;;31.35;5.05;;;6.40;99.90;;;;;;5074516;28;20115;-75
2022/02/02 06:27:37;;;;;;;27.17;4.60;;;6.40;99.90;;;;;;5088438;28;20036;-75
2022/02/02 06:30:08;;;;;;;30.67;5.07;;;6.40;99.90;;;;;;5091027;28;20123;-75
2022/02/02 06:32:48;;;;;;;27.13;4.30;;;6.40;99.90;;;;;;5090415;28;20048;-75
2022/02/02 06:35:14;;;;;;;23.38;5.18;;;6.40;99.90;;;;;;5090855;28;20071;-75
2022/02/02 06:37:42;;;;;;;22.08;4.50;;;6.40;99.90;;;;;;5074546;28;20083;-75
2022/02/02 06:40:09;;;;;;;26.90;5.53;;;6.30;99.90;;;;;;5097775;28;20069;-75
2022/02/02 06:42:39;;;;;;;27.73;4.65;;;6.30;99.90;;;;;;5094169;28;20048;-75
2022/02/02 06:45:07;;;;;;;21.10;4.03;;;6.20;99.90;;;;;;5068260;28;20028;-75
2022/02/02 06:47:35;;;;;;;21.83;3.85;;;6.30;99.90;;;;;;5084438;28;20097;-75
2022/02/02 06:50:11;;;;;;;24.80;5.78;;;6.20;99.90;;;;;;5084730;28;20047;-75
2022/02/02 06:53:14;;;;;;;21.33;3.78;;;6.30;99.90;;;;;;5087981;28;20052;-74
2022/02/02 06:56:30;;;;;;;31.65;4.68;;;6.40;99.90;;;;;;5090746;28;20069;-75
2022/02/02 07:15:26;;;;;;;27.80;4.32;;;6.30;99.90;;;;;;5085848;28;20465;-75
2022/02/02 07:18:11;;;;;;;25.58;4.43;;;6.20;99.90;;;;;;5086260;28;20036;-75
2022/02/02 07:20:51;;;;;;;26.35;3.97;;;6.20;99.90;;;;;;5088806;28;20048;-75
2022/02/02 07:28:19;;;;;;;23.30;4.03;;;6.40;99.90;;;;;;5088886;28;20036;-75
2022/02/02 07:30:59;;;;;;;27.40;5.05;;;6.30;99.90;;;;;;5072642;28;20480;-75
2022/02/02 07:33:33;;;;;;;23.45;3.83;;;6.40;99.90;;;;;;5074005;28;20535;-75
2022/02/02 07:36:11;;;;;;;24.70;4.40;;;6.40;99.90;;;;;;5090574;28;20127;-75
2022/02/02 07:39:06;;;;;;;35.42;5.15;;;6.40;99.90;;;;;;5086523;28;20048;-75
2022/02/02 07:41:35;;;;;;;31.20;4.85;;;6.40;99.90;;;;;;5090394;28;20047;-75
2022/02/02 07:44:13;;;;;;;29.75;6.20;;;6.50;99.90;;;;;;5092059;28;20077;-75
2022/02/02 07:46:53;;;;;;;28.55;5.38;;;6.50;99.90;;;;;;5090195;28;20057;-75
2022/02/02 07:49:29;;;;;;;28.00;5.30;;;6.50;99.90;;;;;;5090454;28;20079;-75
2022/02/02 07:51:55;;;;;;;26.30;4.20;;;6.40;99.90;;;;;;5090881;28;20064;-75
2022/02/02 07:54:27;;;;;;;20.17;4.03;;;6.40;99.90;;;;;;5067706;28;20106;-75
2022/02/02 07:56:53;;;;;;;31.50;4.63;;;6.40;99.90;;;;;;5088892;28;20047;-75
2022/02/02 07:59:21;;;;;;;35.10;4.13;;;6.40;99.90;;;;;;5073795;28;20066;-75
2022/02/02 08:01:52;;;;;;;30.63;5.32;;;6.40;99.90;;;;;;5089340;28;20063;-75
2022/02/02 08:04:20;;;;;;;21.20;3.38;;;6.50;99.90;;;;;;5085222;28;20397;-75
2022/02/02 08:06:51;;;;;;;23.27;3.92;;;6.60;99.90;;;;;;5087462;28;20531;-75
2022/02/02 08:09:38;;;;;;;27.65;4.97;;;6.60;99.90;;;;;;5085761;28;20480;-75
2022/02/02 08:12:06;;;;;;;25.40;4.13;;;6.60;99.90;;;;;;5063570;28;20040;-75
2022/02/02 08:14:35;;;;;;;26.65;4.70;;;6.60;99.90;;;;;;5083736;28;20064;-76
2022/02/02 08:17:01;;;;;;;24.40;4.18;;;6.60;99.90;;;;;;5063536;28;20039;-75
2022/02/02 08:19:26;;;;;;;18.02;3.28;;;6.60;99.90;;;;;;5089069;28;20055;-75
2022/02/02 08:21:52;;;;;;;22.38;4.82;;;6.70;99.90;;;;;;5087241;28;20036;-75
2022/02/02 08:24:19;;;;;;;25.17;4.80;;;6.70;99.90;;;;;;5089362;28;20086;-75
2022/02/02 08:26:45;;;;;;;23.92;4.70;;;6.80;99.90;;;;;;5088687;28;20122;-75
2022/02/02 08:29:10;;;;;;;23.13;5.20;;;6.70;99.90;;;;;;5084767;28;20392;-74
2022/02/02 08:31:36;;;;;;;22.20;3.72;;;6.70;99.90;;;;;;5086641;28;20044;-75
2022/02/02 08:34:08;;;;;;;27.10;4.80;;;6.80;99.90;;;;;;5088630;28;20040;-75
2022/02/02 08:36:34;;;;;;;22.02;4.35;;;6.70;99.90;;;;;;5066448;28;20047;-75
2022/02/02 08:39:26;;;;;;;34.25;5.30;;;6.70;99.90;;;;;;5071024;28;20040;-75
2022/02/02 08:41:58;;;;;;;23.10;3.67;;;6.70;99.90;;;;;;5088902;28;20048;-74
2022/02/02 08:44:28;;;;;;;28.92;3.97;;;6.70;99.90;;;;;;5089326;28;20370;-75
2022/02/02 08:47:00;;;;;;;32.28;5.15;;;6.70;99.90;;;;;;5089208;28;20723;-75
2022/02/02 08:49:26;;;;;;;26.98;4.13;;;6.80;99.90;;;;;;5071784;28;20044;-75
2022/02/02 08:51:52;;;;;;;24.92;4.03;;;6.90;99.90;;;;;;5088941;28;20613;-75
2022/02/02 08:54:30;;;;;;;26.20;4.30;;;6.90;99.90;;;;;;5071264;28;20096;-76
2022/02/02 09:02:06;;;;;;;24.73;4.88;;;6.90;99.90;;;;;;5088658;28;20048;-75
2022/02/02 09:07:16;;;;;;;21.90;4.20;;;6.90;99.90;;;;;;5086892;28;20056;-76
2022/02/02 09:09:54;;;;;;;27.63;3.90;;;6.90;99.90;;;;;;5069622;28;20659;-75
2022/02/02 09:21:44;;;;;;;24.33;4.50;;;7.40;99.90;;;;;;5089397;28;20109;-72
2022/02/02 09:23:56;;;;;;;23.77;4.38;;;7.40;99.90;;;;;;5082409;28;20051;-71
2022/02/02 09:31:58;;;;;;;24.40;4.63;;;7.80;99.90;;;;;;5085928;28;20052;-71
2022/02/02 09:34:23;;;;;;;25.85;4.70;;;8.00;99.90;;;;;;5093570;28;20032;-72
2022/02/02 09:36:50;;;;;;;25.83;4.38;;;8.00;99.90;;;;;;5084191;28;20024;-71
2022/02/02 09:39:30;;;;;;;33.45;4.90;;;7.90;99.90;;;;;;5087905;28;20044;-71
2022/02/02 09:42:04;;;;;;;26.85;4.75;;;7.80;99.90;;;;;;5090047;28;20051;-71
2022/02/02 09:44:36;;;;;;;25.23;4.15;;;7.70;99.90;;;;;;5094046;28;20039;-71
2022/02/02 09:49:54;;;;;;;16.58;3.13;;;7.80;99.90;;;;;;5091667;28;20080;-72
2022/02/02 09:52:22;;;;;;;22.27;4.25;;;7.80;99.90;;;;;;5058889;28;20068;-72
2022/02/02 09:55:01;;;;;;;28.75;4.70;;;7.80;99.90;;;;;;5086339;28;20493;-71
2022/02/02 10:05:32;;;;;;;18.52;3.60;;;7.40;99.90;;;;;;5090270;28;20043;-71
2022/02/02 10:08:34;;;;;;;21.88;3.28;;;7.50;99.90;;;;;;5083947;28;20036;-72
2022/02/02 10:11:06;;;;;;;19.23;3.60;;;7.50;99.90;;;;;;5094411;28;20139;-72
2022/02/02 10:16:21;;;;;;;20.13;3.45;;;7.60;99.90;;;;;;5092340;28;20040;-72
2022/02/02 10:18:47;;;;;;;16.58;3.08;;;7.60;99.90;;;;;;5093478;28;20050;-71
2022/02/02 10:21:13;;;;;;;14.10;2.60;;;7.70;99.90;;;;;;5093111;28;20120;-71
2022/02/02 10:23:41;;;;;;;20.38;4.10;;;7.80;99.90;;;;;;5092567;28;20081;-71
2022/02/02 10:26:17;;;;;;;14.52;3.17;;;7.90;99.90;;;;;;5088372;28;20047;-72
2022/02/02 10:28:43;;;;;;;16.08;3.22;;;7.90;99.90;;;;;;5090403;28;20385;-71
2022/02/02 10:31:08;;;;;;;16.75;3.40;;;7.90;99.90;;;;;;5071705;28;20048;-71
2022/02/02 10:33:37;;;;;;;15.90;3.25;;;7.90;99.90;;;;;;5088506;28;20173;-71
2022/02/02 10:36:17;;;;;;;18.63;3.72;;;8.00;99.90;;;;;;5085729;28;20131;-71
2022/02/02 10:39:00;;;;;;;12.15;2.70;;;7.90;99.90;;;;;;5086804;28;20039;-71
2022/02/02 10:41:38;;;;;;;16.00;2.97;;;7.90;99.90;;;;;;5092210;28;20112;-71
2022/02/02 10:44:16;;;;;;;18.70;2.80;;;8.00;99.90;;;;;;5080593;28;20055;-72
2022/02/02 10:47:03;;;;;;;17.83;3.05;;;8.00;99.90;;;;;;5090604;28;20363;-71
2022/02/02 10:49:41;;;;;;;17.10;2.83;;;7.90;99.90;;;;;;5078540;28;20035;-72
2022/02/02 10:52:25;;;;;;;21.90;3.65;;;8.10;99.90;;;;;;5086699;28;20517;-72
2022/02/02 10:58:24;;;;;;;20.27;2.83;;;8.20;99.90;;;;;;5087958;28;20035;-71
2022/02/02 11:01:06;;;;;;;21.98;3.78;;;8.20;99.90;;;;;;5078064;28;20043;-72
2022/02/02 11:09:03;;;;;;;20.58;3.63;;;8.10;99.90;;;;;;5090162;28;20044;-72
2022/02/02 11:11:29;;;;;;;19.98;3.58;;;8.10;99.90;;;;;;5073841;28;20093;-71
2022/02/02 11:14:03;;;;;;;14.90;3.10;;;8.10;99.90;;;;;;5091769;28;20040;-71
2022/02/02 11:16:32;;;;;;;18.85;3.25;;;8.10;99.90;;;;;;5092200;28;20040;-71
2022/02/02 11:19:00;;;;;;;13.98;3.00;;;8.10;99.90;;;;;;5085818;28;20168;-71
2022/02/02 11:21:35;;;;;;;12.52;2.70;;;8.20;99.90;;;;;;5093169;28;20115;-72
2022/02/02 11:24:16;;;;;;;17.30;3.45;;;8.20;99.90;;;;;;5091309;28;20051;-72
2022/02/02 11:26:43;;;;;;;18.02;3.03;;;8.30;99.90;;;;;;5070633;28;20043;-72
2022/02/02 11:29:10;;;;;;;14.50;2.92;;;8.40;99.90;;;;;;5061320;28;20582;-72
2022/02/02 11:32:03;;;;;;;14.63;2.67;;;8.50;99.90;;;;;;5084121;28;20125;-71
2022/02/02 11:34:28;;;;;;;17.85;2.92;;;8.50;99.90;;;;;;5089578;28;20040;-72
2022/02/02 11:36:55;;;;;;;16.02;3.47;;;8.50;99.90;;;;;;5071934;28;20476;-74
2022/02/02 11:39:38;;;;;;;12.82;2.60;;;8.60;99.90;;;;;;5088443;28;20066;-74
2022/02/02 11:42:15;;;;;;;15.95;3.03;;;8.80;99.90;;;;;;5071765;28;20478;-75
2022/02/02 11:44:49;;;;;;;14.90;2.72;;;8.90;99.90;;;;;;5086134;28;20488;-74
2022/02/02 11:49:44;;;;;;;14.77;2.40;;;8.60;99.90;;;;;;5089997;28;20068;-74
2022/02/02 11:52:29;;;;;;;11.85;2.92;;;8.70;99.90;;;;;;5090604;28;20091;-74
2022/02/02 11:54:55;;;;;;;14.27;2.65;;;8.70;99.90;;;;;;5084827;28;20385;-75
2022/02/02 11:57:24;;;;;;;15.32;2.75;;;8.70;99.90;;;;;;5084995;28;20032;-74
2022/02/02 12:00:06;;;;;;;14.93;2.55;;;8.70;99.90;;;;;;5086430;28;20162;-74
2022/02/02 12:57:45;;;;;;;9.57;2.05;;;9.30;99.90;;;;;;5088290;28;20161;-74
2022/02/02 13:00:21;;;;;;;10.80;1.70;;;9.30;99.90;;;;;;5075112;28;20040;-72
2022/02/02 13:02:47;;;;;;;9.00;1.92;;;9.30;99.90;;;;;;5093341;28;20119;-71
2022/02/02 13:05:13;;;;;;;14.55;1.85;;;9.40;99.90;;;;;;5093349;28;20040;-71
2022/02/02 13:07:42;;;;;;;10.07;1.98;;;9.30;99.90;;;;;;5093389;28;20044;-72
2022/02/02 13:10:12;;;;;;;11.93;2.15;;;9.20;99.90;;;;;;5093458;28;20044;-71
2022/02/02 13:16:10;;;;;;;12.25;1.98;;;9.20;99.90;;;;;;5093194;28;20052;-72
2022/02/02 13:21:17;;;;;;;11.38;2.63;;;9.20;99.90;;;;;;5093170;28;20059;-72
2022/02/02 13:24:04;;;;;;;8.07;1.60;;;9.10;99.90;;;;;;5076388;28;20110;-71
2022/02/02 13:26:56;;;;;;;10.18;2.10;;;9.20;99.90;;;;;;5094219;28;20089;-72
2022/02/02 13:32:07;;;;;;;10.27;2.25;;;9.10;99.90;;;;;;5093038;28;20052;-72
2022/02/02 13:46:21;;;;;;;;;;;9.10;99.90;;;;;;5080509;28;20040;-71
2022/02/02 14:02:13;;;;;;;8.43;1.80;;;9.30;99.90;;;;;;5091695;28;20044;-72
2022/02/02 14:05:03;;;;;;;9.55;2.72;;;9.20;99.90;;;;;;5092346;28;20043;-72
2022/02/02 14:07:47;;;;;;;10.70;2.03;;;9.10;99.90;;;;;;5092039;28;20047;-72
2022/02/02 14:11:07;;;;;;;9.50;1.98;;;9.20;99.90;;;;;;5092373;28;20521;-72
2022/02/02 14:32:09;;;;;;;15.48;2.40;;;9.00;99.90;;;;;;5093225;28;20139;-72
2022/02/02 14:34:34;;;;;;;11.13;2.40;;;9.00;99.90;;;;;;5074954;28;20111;-72
2022/02/02 14:37:01;;;;;;;9.55;1.75;;;9.00;99.90;;;;;;5089633;28;20093;-72
2022/02/02 14:39:41;;;;;;;11.45;2.33;;;9.00;99.90;;;;;;5082055;28;20521;-72
2022/02/02 14:42:15;;;;;;;10.07;2.17;;;9.00;99.90;;;;;;5091505;28;20036;-72
2022/02/02 14:44:43;;;;;;;9.38;1.98;;;9.10;99.90;;;;;;5091557;28;20048;-72
2022/02/02 14:47:17;;;;;;;12.43;2.40;;;9.10;99.90;;;;;;5091452;28;20482;-72
2022/02/02 14:50:30;;;;;;;11.63;2.22;;;9.20;99.90;;;;;;5091883;28;20043;-72
2022/02/02 14:52:44;;;;;;;14.35;2.25;;;9.30;99.90;;;;;;5086150;28;20552;-72
2022/02/02 15:16:50;;;;;;;10.50;2.13;;;9.20;99.90;;;;;;5090785;28;20052;-74
2022/02/02 15:25:15;;;;;;;13.63;1.92;;;9.00;99.90;;;;;;5090193;28;20119;-74
2022/02/02 15:27:38;;;;;;;10.45;2.00;;;8.90;99.90;;;;;;5091452;28;20032;-74
2022/02/02 15:32:50;;;;;;;11.70;2.05;;;8.70;99.90;;;;;;5091256;28;20040;-74
2022/02/02 15:35:16;;;;;;;10.80;2.60;;;8.50;99.90;;;;;;5087140;28;20198;-74
2022/02/02 15:37:57;;;;;;;13.95;2.30;;;8.50;99.90;;;;;;5085993;28;20122;-74
2022/02/02 15:40:29;;;;;;;9.88;1.63;;;8.40;99.90;;;;;;5086648;28;20076;-74
2022/02/02 15:43:26;;;;;;;10.82;2.15;;;8.30;99.90;;;;;;5088590;28;20130;-74
2022/02/02 16:02:11;;;;;;;16.58;2.70;;;7.60;99.90;;;;;;5086953;28;20134;-75
2022/02/02 16:04:38;;;;;;;17.70;3.05;;;7.50;99.90;;;;;;5084375;28;20059;-75
2022/02/02 16:07:07;;;;;;;10.68;2.10;;;7.40;99.90;;;;;;5043486;22;20060;-72
2022/02/02 16:09:47;;;;;;;10.35;2.15;;;7.30;99.90;;;;;;5028962;28;20045;-72
2022/02/02 16:12:58;;;;;;;12.65;2.25;;;7.20;99.90;;;;;;5026266;28;20041;-73
2022/02/02 16:17:47;;;;;;;12.35;2.58;;;7.00;99.90;;;;;;5032566;28;20053;-72
2022/02/02 16:39:12;;;;;;;14.07;3.58;;;6.30;99.90;;;;;;4975783;28;20562;-73
2022/02/02 16:44:28;;;;;;;17.92;4.07;;;6.10;99.90;;;;;;4998490;28;20046;-72
2022/02/02 16:46:54;;;;;;;16.58;3.85;;;6.00;99.90;;;;;;5036285;28;20037;-72
2022/02/02 16:49:20;;;;;;;13.82;3.67;;;6.00;99.90;;;;;;5032967;28;20037;-72
2022/02/02 16:51:46;;;;;;;17.70;3.47;;;5.90;99.90;;;;;;5041325;28;20121;-72
2022/02/02 16:54:37;;;;;;;10.40;3.05;;;5.80;99.90;;;;;;5036950;28;20119;-72
2022/02/02 16:57:22;;;;;;;10.65;3.40;;;5.80;99.90;;;;;;5034066;28;20111;-73
2022/02/02 17:30:00;;;;;;;15.55;3.63;;;5.30;99.90;;;;;;5028852;28;20045;-71
2022/02/02 17:35:19;;;;;;;33.67;12.50;;;5.20;99.90;;;;;;5028686;28;20087;-71
2022/02/02 17:37:54;;;;;;;20.98;10.38;;;5.20;99.90;;;;;;5024604;28;20064;-71
2022/02/02 18:00:27;;;;;;;19.75;3.40;;;4.70;99.90;;;;;;5031110;28;20103;-71
2022/02/02 18:18:48;;;;;;;13.02;2.72;;;4.60;99.90;;;;;;5042100;28;20051;-71
2022/02/02 18:21:16;;;;;;;17.13;3.05;;;4.60;99.90;;;;;;5036888;28;20037;-71
2022/02/02 18:23:48;;;;;;;16.33;3.20;;;4.50;99.90;;;;;;5029742;28;20034;-71
2022/02/02 18:26:23;;;;;;;13.27;3.03;;;4.60;99.90;;;;;;5027660;28;20532;-71
2022/02/02 18:28:57;;;;;;;12.88;3.45;;;4.50;99.90;;;;;;5026616;28;20041;-71
2022/02/02 18:32:18;;;;;;;14.65;3.10;;;4.50;99.90;;;;;;5024879;28;20045;-71
2022/02/02 18:43:00;;;;;;;12.05;2.65;;;4.40;99.90;;;;;;5043770;28;20072;-71
2022/02/02 18:50:01;;;;;;;17.98;3.05;;;4.30;99.90;;;;;;5037655;28;20155;-72
2022/02/02 19:05:46;;;;;;;16.63;3.15;;;4.20;99.90;;;;;;5027214;28;20049;-72
2022/02/02 19:38:19;;;;;;;13.73;3.67;;;4.00;99.90;;;;;;5029540;28;20048;-72
2022/02/02 20:12:35;;;;;;;14.65;4.30;;;4.20;99.90;;;;;;5035535;28;20124;-72
2022/02/02 20:15:01;;;;;;;16.42;4.55;;;4.20;99.90;;;;;;5035798;28;20127;-72
2022/02/02 20:17:27;;;;;;;18.10;4.95;;;4.20;99.90;;;;;;5031709;28;20052;-72
2022/02/02 20:20:00;;;;;;;16.45;4.88;;;4.20;99.90;;;;;;5035394;28;20128;-72
2022/02/02 20:22:30;;;;;;;15.80;4.22;;;4.30;99.90;;;;;;5035648;28;20048;-73
2022/02/02 20:24:59;;;;;;;18.05;4.70;;;4.30;99.90;;;;;;5031170;28;20128;-72
2022/02/02 20:27:27;;;;;;;16.60;4.55;;;4.30;99.90;;;;;;5036816;28;20041;-72
2022/02/02 20:29:52;;;;;;;19.50;4.93;;;4.40;99.90;;;;;;5037252;28;20059;-72
2022/02/02 20:32:18;;;;;;;13.18;3.92;;;4.40;99.90;;;;;;5032904;28;20041;-72
2022/02/02 20:34:44;;;;;;;13.20;3.95;;;4.40;99.90;;;;;;5039902;28;20045;-72
2022/02/02 20:37:13;;;;;;;19.10;4.78;;;4.50;99.90;;;;;;5045912;28;20045;-72
2022/02/02 20:39:52;;;;;;;15.75;4.60;;;4.40;99.90;;;;;;5038999;28;20046;-72
2022/02/02 20:42:26;;;;;;;17.25;4.45;;;4.50;99.90;;;;;;5043864;28;20049;-72
2022/02/02 21:14:48;;;;;;;23.13;5.47;;;5.10;99.90;;;;;;5027545;28;20045;-72
2022/02/02 21:17:20;;;;;;;24.10;6.75;;;5.20;99.90;;;;;;5027948;28;20044;-72
2022/02/02 21:20:02;;;;;;;22.50;6.40;;;5.30;99.90;;;;;;5030037;28;20506;-73
2022/02/02 21:22:31;;;;;;;;;;;5.30;99.90;;;;;;5023785;28;20072;-73
2022/02/02 21:25:19;;;;;;;30.42;6.25;;;5.40;99.90;;;;;;5023693;28;19924;-72
2022/02/02 21:27:48;;;;;;;21.08;6.72;;;5.50;99.90;;;;;;5031323;28;20041;-72
2022/02/02 21:30:14;;;;;;;21.25;7.05;;;5.50;99.90;;;;;;5029813;28;20065;-73
2022/02/02 21:32:39;;;;;;;22.55;7.68;;;5.50;99.90;;;;;;5046397;28;20061;-73
2022/02/02 21:35:07;;;;;;;20.63;7.38;;;5.60;99.90;;;;;;5029146;28;20041;-73
2022/02/02 21:37:35;;;;;;;32.47;8.88;;;5.70;99.90;;;;;;5030841;28;20554;-72
2022/02/02 21:40:16;;;;;;;31.17;8.73;;;5.70;99.90;;;;;;5037627;28;20045;-72
2022/02/02 21:42:44;;;;;;;32.25;9.18;;;5.70;99.90;;;;;;5032888;28;20603;-72
2022/02/02 21:45:10;;;;;;;27.05;8.95;;;5.70;99.90;;;;;;5017077;28;20501;-72
2022/02/02 21:47:36;;;;;;;33.47;10.52;;;5.70;99.90;;;;;;5036681;28;20474;-72
2022/02/02 21:50:06;;;;;;;29.00;9.65;;;5.80;99.90;;;;;;5033558;28;20068;-72
2022/02/02 21:52:33;;;;;;;35.67;10.30;;;5.80;99.90;;;;;;5028862;28;20042;-72
2022/02/02 21:54:58;;;;;;;35.65;10.63;;;5.80;99.90;;;;;;5037438;28;20085;-73
2022/02/02 21:57:24;;;;;;;25.98;9.90;;;5.80;99.90;;;;;;5027320;28;20041;-72
2022/02/02 21:59:49;;;;;;;29.05;11.23;;;5.90;99.90;;;;;;5027488;28;20060;-72
2022/02/02 22:02:15;;;;;;;28.63;10.15;;;5.90;99.90;;;;;;5031350;28;20132;-72
2022/02/02 22:04:41;;;;;;;32.08;11.95;;;5.90;99.90;;;;;;5030096;28;20034;-72
2022/02/02 22:07:06;;;;;;;32.63;13.18;;;5.90;99.90;;;;;;5026196;28;20085;-72
2022/02/02 22:09:32;;;;;;;30.05;13.95;;;6.00;99.90;;;;;;5033841;28;20041;-72
2022/02/02 22:11:57;;;;;;;31.05;13.07;;;6.00;99.90;;;;;;5030327;28;20593;-72
2022/02/02 22:14:25;;;;;;;38.40;14.05;;;6.10;99.90;;;;;;5029594;28;20467;-73
2022/02/02 22:16:52;;;;;;;31.15;13.52;;;6.10;99.90;;;;;;5012809;28;20052;-73
2022/02/02 22:19:18;;;;;;;29.35;12.32;;;6.10;99.90;;;;;;5043594;28;20072;-72
2022/02/02 22:21:43;;;;;;;34.70;12.73;;;6.20;99.90;;;;;;5026697;28;20059;-72
2022/02/02 22:24:09;;;;;;;30.77;13.52;;;6.20;99.90;;;;;;5027304;28;20038;-72
2022/02/02 22:26:36;;;;;;;33.47;13.05;;;6.20;99.90;;;;;;5039258;28;20372;-72
2022/02/02 22:29:02;;;;;;;30.63;13.07;;;6.20;99.90;;;;;;5029627;28;20073;-72
2022/02/02 22:31:27;;;;;;;37.35;14.88;;;6.30;99.90;;;;;;5034285;28;20072;-73
2022/02/02 22:33:53;;;;;;;34.17;14.57;;;6.30;99.90;;;;;;5038210;28;20049;-72
2022/02/02 22:36:19;;;;;;;34.33;15.07;;;6.30;99.90;;;;;;5041407;28;20051;-72
2022/02/02 22:38:46;;;;;;;32.80;14.88;;;6.30;99.90;;;;;;5033156;28;20033;-72
2022/02/02 22:41:12;;;;;;;33.92;15.98;;;6.40;99.90;;;;;;5033004;28;20037;-72
2022/02/02 22:43:45;;;;;;;32.45;16.17;;;6.40;99.90;;;;;;5032540;28;20136;-72
2022/02/02 22:46:11;;;;;;;29.27;14.43;;;6.50;99.90;;;;;;5005819;28;20044;-72
2022/02/02 22:48:39;;;;;;;33.92;15.45;;;6.50;99.90;;;;;;5032078;28;20379;-72
2022/02/02 22:51:04;;;;;;;37.58;15.98;;;6.50;99.90;;;;;;5018174;28;20065;-72
2022/02/02 22:53:31;;;;;;;34.22;16.30;;;6.60;99.90;;;;;;5025977;28;20431;-72
2022/02/02 22:55:56;;;;;;;35.78;16.45;;;6.60;99.90;;;;;;5044112;28;20052;-73
2022/02/02 22:58:22;;;;;;;34.63;17.17;;;6.60;99.90;;;;;;5027732;28;20038;-73
2022/02/02 23:00:49;;;;;;;34.88;17.27;;;6.60;99.90;;;;;;5026878;28;20095;-73
2022/02/02 23:03:18;;;;;;;30.35;15.90;;;6.60;99.90;;;;;;5029231;28;20128;-73
2022/02/02 23:05:47;;;;;;;31.77;16.25;;;6.70;99.90;;;;;;5029464;28;20061;-73
2022/02/02 23:08:15;;;;;;;24.85;13.50;;;6.70;99.90;;;;;;5028697;28;20052;-73
2022/02/02 23:10:42;;;;;;;25.48;15.35;;;6.70;99.90;;;;;;5029480;28;20565;-73
2022/02/02 23:13:09;;;;;;;31.58;15.35;;;6.80;99.90;;;;;;5031789;28;20099;-73
2022/02/02 23:15:41;;;;;;;29.73;15.15;;;6.80;99.90;;;;;;5029957;28;20045;-73
2022/02/02 23:18:19;;;;;;;26.55;14.85;;;6.80;99.90;;;;;;5030719;28;20144;-73
2022/02/02 23:20:50;;;;;;;27.33;15.02;;;6.80;99.90;;;;;;5029405;28;20049;-73
2022/02/02 23:23:21;;;;;;;22.40;13.98;;;6.80;99.90;;;;;;5030026;28;20088;-73
2022/02/02 23:25:48;;;;;;;27.02;15.32;;;6.90;99.90;;;;;;5022420;28;20048;-72
2022/02/02 23:28:19;;;;;;;30.75;17.05;;;7.00;99.90;;;;;;5029625;28;20080;-72
2022/02/02 23:30:45;;;;;;;30.90;16.47;;;7.00;99.90;;;;;;5024944;28;20034;-73
2022/02/02 23:33:11;;;;;;;32.17;16.38;;;6.90;99.90;;;;;;5029507;28;20052;-73
2022/02/02 23:35:39;;;;;;;32.60;16.73;;;7.00;99.90;;;;;;5027912;28;20033;-73
2022/02/02 23:38:06;;;;;;;40.95;19.67;;;7.00;99.90;;;;;;5028879;28;20041;-73
2022/02/02 23:40:50;;;;;;;41.67;19.45;;;7.00;99.90;;;;;;5029888;28;20052;-73
2022/02/02 23:43:17;;;;;;;44.83;19.73;;;7.00;99.90;;;;;;5025245;28;20128;-73
2022/02/02 23:45:49;;;;;;;39.75;18.85;;;7.00;99.90;;;;;;5027760;28;20124;-73
2022/02/02 23:48:16;;;;;;;38.75;19.27;;;7.10;99.90;;;;;;5026561;28;20116;-73